Time;durP1;ratioP1;P1;durP2;ratioP2;P2;SDS_P1;SDS_P2;PMS_P1;PMS_P2;Temp;Humidity;BMP_temperature;BMP_pressure;BME280_temperature;BME280_humidity;BME280_pressure;Samples;Min_cycle;Max_cycle;Signal;HPM_P1;HPM_P2
2023/10/13 00:01:48;;;;;;;12.63;5.13;;;18.60;99.90;;;;;;5066226;28;20228;-58
2023/10/13 00:04:15;;;;;;;8.80;5.20;;;18.50;99.90;;;;;;5062837;28;20272;-59
2023/10/13 00:06:42;;;;;;;10.20;5.05;;;18.50;99.90;;;;;;5061412;28;20209;-58
2023/10/13 00:09:14;;;;;;;14.90;5.32;;;18.50;99.90;;;;;;5055429;28;20319;-57
2023/10/13 00:11:44;;;;;;;8.18;4.63;;;18.50;99.90;;;;;;5054826;28;20205;-59
2023/10/13 00:14:15;;;;;;;5.78;4.57;;;18.40;99.90;;;;;;5054971;28;20209;-59
2023/10/13 00:16:43;;;;;;;10.40;5.07;;;18.40;99.90;;;;;;5054668;28;20209;-57
2023/10/13 00:19:18;;;;;;;9.65;5.15;;;18.30;99.90;;;;;;5054679;28;20255;-58
2023/10/13 00:21:44;;;;;;;7.70;5.53;;;18.30;99.90;;;;;;5054534;28;20709;-58
2023/10/13 00:24:14;;;;;;;13.30;5.13;;;18.20;99.90;;;;;;5054719;28;20208;-57
2023/10/13 00:26:43;;;;;;;9.05;5.18;;;18.10;99.90;;;;;;5054615;28;20592;-60
2023/10/13 00:29:15;;;;;;;11.70;5.45;;;18.10;99.90;;;;;;5054215;28;20229;-59
2023/10/13 00:31:44;;;;;;;7.68;4.68;;;18.10;99.90;;;;;;5054267;28;20252;-58
2023/10/13 00:34:18;;;;;;;11.15;5.22;;;18.00;99.90;;;;;;5054561;28;20220;-58
2023/10/13 00:36:48;;;;;;;11.05;5.20;;;18.00;99.90;;;;;;5054114;28;20279;-57
2023/10/13 00:39:15;;;;;;;10.30;5.38;;;17.90;99.90;;;;;;5054081;28;20233;-58
2023/10/13 00:41:51;;;;;;;6.80;5.15;;;17.90;99.90;;;;;;5054147;28;20205;-57
2023/10/13 00:44:25;;;;;;;8.75;4.68;;;17.90;99.90;;;;;;5054146;28;20225;-58
2023/10/13 00:46:56;;;;;;;7.75;5.32;;;17.80;99.90;;;;;;5053905;28;20693;-57
2023/10/13 00:49:23;;;;;;;8.95;5.60;;;17.70;99.90;;;;;;5053986;28;20323;-57
2023/10/13 00:51:49;;;;;;;9.52;5.78;;;17.70;99.90;;;;;;5053742;28;20209;-58
2023/10/13 00:54:18;;;;;;;11.80;5.82;;;17.60;99.90;;;;;;5053760;28;20228;-58
2023/10/13 00:56:48;;;;;;;10.43;5.90;;;17.50;99.90;;;;;;5053727;28;20205;-58
2023/10/13 00:59:15;;;;;;;8.77;5.72;;;17.40;99.90;;;;;;5053876;28;20225;-58
2023/10/13 01:01:42;;;;;;;13.00;5.93;;;17.30;99.90;;;;;;5054087;28;20220;-57
2023/10/13 01:04:12;;;;;;;11.57;6.15;;;17.20;99.90;;;;;;5053744;28;20225;-59
2023/10/13 01:06:38;;;;;;;11.00;6.35;;;17.10;99.90;;;;;;5053437;28;20212;-59
2023/10/13 01:09:16;;;;;;;11.63;5.82;;;17.10;99.90;;;;;;5053062;28;20225;-59
2023/10/13 01:11:44;;;;;;;7.97;6.32;;;17.00;99.90;;;;;;5053463;28;20670;-57
2023/10/13 01:14:12;;;;;;;9.00;6.20;;;16.90;99.90;;;;;;5053416;28;20320;-58
2023/10/13 01:16:43;;;;;;;9.90;6.10;;;16.80;99.90;;;;;;5053452;28;20562;-58
2023/10/13 01:19:12;;;;;;;9.57;5.88;;;16.80;99.90;;;;;;5053212;28;20237;-57
2023/10/13 01:21:40;;;;;;;13.13;6.72;;;16.90;99.90;;;;;;5053188;28;20300;-58
2023/10/13 01:24:10;;;;;;;9.65;6.38;;;16.80;99.90;;;;;;5053530;28;20206;-58
2023/10/13 01:26:38;;;;;;;10.57;6.88;;;16.80;99.90;;;;;;5053216;28;20240;-58
2023/10/13 01:29:14;;;;;;;11.52;7.35;;;16.80;99.90;;;;;;5052833;28;20729;-58
2023/10/13 01:31:45;;;;;;;12.43;6.95;;;16.70;99.90;;;;;;5053120;28;20267;-58
2023/10/13 01:34:14;;;;;;;14.27;6.20;;;16.70;99.90;;;;;;5052907;28;20201;-57
2023/10/13 01:36:41;;;;;;;14.35;6.60;;;16.70;99.90;;;;;;5052867;28;20746;-57
2023/10/13 01:39:16;;;;;;;9.20;6.47;;;16.60;99.90;;;;;;5052743;28;20698;-59
2023/10/13 01:41:42;;;;;;;10.65;6.30;;;16.50;99.90;;;;;;5052758;28;20217;-58
2023/10/13 01:44:11;;;;;;;11.95;6.38;;;16.40;99.90;;;;;;5052683;28;20624;-58
2023/10/13 01:46:37;;;;;;;8.48;6.43;;;16.50;99.90;;;;;;5052961;28;20213;-59
2023/10/13 01:49:03;;;;;;;8.25;6.15;;;16.40;99.90;;;;;;5052023;28;20221;-58
2023/10/13 01:51:29;;;;;;;9.93;6.20;;;16.40;99.90;;;;;;5052552;28;20267;-59
2023/10/13 01:53:57;;;;;;;7.07;5.70;;;16.40;99.90;;;;;;5052682;28;20240;-58
2023/10/13 01:56:29;;;;;;;11.52;6.55;;;16.30;99.90;;;;;;5052371;28;20624;-58
2023/10/13 01:58:55;;;;;;;9.07;6.03;;;16.30;99.90;;;;;;5052016;28;20233;-59
2023/10/13 02:01:26;;;;;;;11.00;6.80;;;16.20;99.90;;;;;;5052352;28;20581;-59
2023/10/13 02:04:01;;;;;;;11.20;6.05;;;16.20;99.90;;;;;;5052542;28;20206;-58
2023/10/13 02:06:32;;;;;;;13.40;6.63;;;16.10;99.90;;;;;;5052593;28;20200;-59
2023/10/13 02:09:05;;;;;;;7.97;5.73;;;16.10;99.90;;;;;;5052143;28;20226;-58
2023/10/13 02:11:32;;;;;;;11.90;5.78;;;16.10;99.90;;;;;;5052199;28;20217;-58
2023/10/13 02:14:00;;;;;;;12.27;6.25;;;16.00;99.90;;;;;;5052368;28;20690;-58
2023/10/13 02:16:26;;;;;;;8.18;5.63;;;16.00;99.90;;;;;;5052325;28;20205;-58
2023/10/13 02:18:52;;;;;;;9.17;5.67;;;15.90;99.90;;;;;;5051925;28;20279;-58
2023/10/13 02:21:18;;;;;;;11.75;6.22;;;15.90;99.90;;;;;;5052228;28;20623;-58
2023/10/13 02:23:45;;;;;;;9.60;5.53;;;15.80;99.90;;;;;;5052054;28;20212;-58
2023/10/13 02:26:12;;;;;;;8.70;5.65;;;15.80;99.90;;;;;;5052205;28;20209;-59
2023/10/13 02:28:40;;;;;;;7.25;5.60;;;15.70;99.90;;;;;;5051908;28;20226;-58
2023/10/13 02:31:06;;;;;;;10.50;5.53;;;15.70;99.90;;;;;;5052034;28;20239;-59
2023/10/13 02:33:33;;;;;;;8.63;5.53;;;15.70;99.90;;;;;;5052002;28;20204;-60
2023/10/13 02:36:03;;;;;;;9.45;5.85;;;15.70;99.90;;;;;;5051750;28;20213;-58
2023/10/13 02:38:34;;;;;;;13.05;6.15;;;15.70;99.90;;;;;;5051641;28;20217;-59
2023/10/13 02:41:05;;;;;;;8.65;5.53;;;15.60;99.90;;;;;;5051854;28;20206;-60
2023/10/13 02:43:34;;;;;;;11.55;5.93;;;15.60;99.90;;;;;;5052028;28;20205;-58
2023/10/13 02:46:02;;;;;;;8.68;5.40;;;15.50;99.90;;;;;;5051483;28;20205;-57
2023/10/13 02:48:39;;;;;;;11.30;5.57;;;15.50;99.90;;;;;;5051384;28;20305;-59
2023/10/13 02:51:15;;;;;;;8.68;5.43;;;15.50;99.90;;;;;;5051393;28;20260;-60
2023/10/13 02:53:42;;;;;;;10.32;5.63;;;15.50;99.90;;;;;;5051451;28;20573;-59
2023/10/13 02:56:13;;;;;;;9.77;5.30;;;15.50;99.90;;;;;;5051629;28;20211;-59
2023/10/13 02:58:39;;;;;;;12.45;5.90;;;15.50;99.90;;;;;;5051174;28;20233;-59
2023/10/13 03:01:16;;;;;;;7.97;5.33;;;15.50;99.90;;;;;;5050599;28;20251;-59
2023/10/13 03:03:43;;;;;;;9.43;5.10;;;15.50;99.90;;;;;;5051359;28;20209;-59
2023/10/13 03:06:11;;;;;;;9.25;5.75;;;15.50;99.90;;;;;;5051458;28;20197;-59
2023/10/13 03:08:37;;;;;;;7.50;4.70;;;15.40;99.90;;;;;;5051252;28;20230;-58
2023/10/13 03:11:05;;;;;;;9.77;5.10;;;15.40;99.90;;;;;;5051162;28;20275;-58
2023/10/13 03:13:33;;;;;;;9.40;4.87;;;15.30;99.90;;;;;;5051279;28;20260;-58
2023/10/13 03:15:59;;;;;;;9.43;4.77;;;15.30;99.90;;;;;;5051523;28;20205;-58
2023/10/13 03:18:32;;;;;;;7.88;5.18;;;15.30;99.90;;;;;;5051007;28;20240;-58
2023/10/13 03:21:02;;;;;;;8.63;5.20;;;15.20;99.90;;;;;;5051482;28;20201;-58
2023/10/13 03:23:28;;;;;;;10.73;5.32;;;15.30;99.90;;;;;;5051429;28;20216;-58
2023/10/13 03:25:55;;;;;;;8.52;5.78;;;15.30;99.90;;;;;;5051098;28;20564;-58
2023/10/13 03:28:25;;;;;;;16.63;5.70;;;15.30;99.90;;;;;;5051095;28;20309;-58
2023/10/13 03:30:53;;;;;;;12.23;6.13;;;15.20;99.90;;;;;;5050925;28;20225;-59
2023/10/13 03:33:26;;;;;;;8.30;6.18;;;15.20;99.90;;;;;;5051189;28;20292;-60
2023/10/13 03:35:58;;;;;;;10.52;6.43;;;15.10;99.90;;;;;;5051062;28;20194;-59
2023/10/13 03:38:27;;;;;;;8.35;5.50;;;15.10;99.90;;;;;;5050806;28;20236;-58
2023/10/13 03:41:07;;;;;;;8.73;5.30;;;15.00;99.90;;;;;;5050895;28;20206;-58
2023/10/13 03:43:44;;;;;;;10.27;6.47;;;15.00;99.90;;;;;;5050825;28;20735;-58
2023/10/13 03:46:11;;;;;;;9.38;5.88;;;15.00;99.90;;;;;;5050717;28;20240;-57
2023/10/13 03:48:52;;;;;;;11.10;5.83;;;15.00;99.90;;;;;;5050773;28;20229;-57
2023/10/13 03:51:20;;;;;;;10.30;6.13;;;15.00;99.90;;;;;;5050887;28;20247;-58
2023/10/13 03:53:56;;;;;;;8.30;5.90;;;15.00;99.90;;;;;;5050811;28;20668;-59
2023/10/13 03:56:28;;;;;;;8.27;5.50;;;15.00;99.90;;;;;;5050872;28;20239;-58
2023/10/13 03:58:58;;;;;;;13.80;6.23;;;14.90;99.90;;;;;;5050525;28;20237;-58
2023/10/13 04:01:31;;;;;;;13.77;6.23;;;14.90;99.90;;;;;;5050675;28;20628;-57
2023/10/13 04:04:03;;;;;;;12.00;5.65;;;14.80;99.90;;;;;;5050799;28;20220;-58
2023/10/13 04:12:26;;;;;;;9.57;6.00;;;14.70;99.90;;;;;;5051340;28;20209;-59
2023/10/13 04:17:45;;;;;;;9.50;5.60;;;14.80;99.90;;;;;;5054307;28;20697;-60
2023/10/13 04:20:26;;;;;;;10.80;5.70;;;14.90;99.90;;;;;;5054263;28;20599;-58
2023/10/13 04:23:18;;;;;;;12.38;5.82;;;14.90;99.90;;;;;;5054182;28;20409;-58
2023/10/13 04:31:14;;;;;;;9.93;5.60;;;14.80;99.90;;;;;;5051985;28;20238;-59
2023/10/13 04:33:52;;;;;;;11.43;6.00;;;14.80;99.90;;;;;;5054298;28;20190;-58
2023/10/13 04:36:36;;;;;;;11.70;6.30;;;14.80;99.90;;;;;;5054134;28;20627;-58
2023/10/13 04:39:09;;;;;;;12.23;6.43;;;14.80;99.90;;;;;;5053740;28;20234;-58
2023/10/13 04:41:39;;;;;;;7.17;5.33;;;14.90;99.90;;;;;;5053724;28;20240;-58
2023/10/13 04:44:23;;;;;;;8.97;6.03;;;15.00;99.90;;;;;;5053879;28;20564;-58
2023/10/13 04:47:08;;;;;;;11.33;5.13;;;15.10;99.90;;;;;;5053722;28;20618;-58
2023/10/13 04:49:49;;;;;;;7.03;4.87;;;15.20;99.90;;;;;;5053770;28;20233;-58
2023/10/13 04:52:38;;;;;;;10.07;5.67;;;15.20;99.90;;;;;;5053616;28;20209;-58
2023/10/13 04:55:43;;;;;;;8.48;4.35;;;15.20;99.90;;;;;;5054109;28;20213;-58
2023/10/13 05:00:56;;;;;;;6.22;4.32;;;15.20;99.90;;;;;;5066416;22;20373;-63
2023/10/13 05:03:54;;;;;;;8.93;4.00;;;15.20;99.90;;;;;;5045011;28;20255;-63
2023/10/13 05:45:22;;;;;;;8.63;3.97;;;15.00;99.90;;;;;;5005920;28;20369;-63
2023/10/13 05:47:53;;;;;;;10.27;3.80;;;15.20;99.90;;;;;;5038350;28;20238;-63
2023/10/13 06:28:45;;;;;;;8.98;3.50;;;17.60;99.90;;;;;;5039602;28;20261;-62
2023/10/13 06:31:21;;;;;;;9.20;4.35;;;18.10;99.90;;;;;;5040923;28;20230;-62
2023/10/13 06:33:49;;;;;;;8.55;4.10;;;18.40;99.90;;;;;;5042941;28;20620;-61
2023/10/13 06:36:17;;;;;;;6.78;4.13;;;18.90;99.90;;;;;;5040429;28;20270;-61
2023/10/13 06:38:44;;;;;;;13.02;4.00;;;19.40;99.90;;;;;;5038956;28;20226;-62
2023/10/13 06:41:19;;;;;;;11.82;3.58;;;19.70;99.90;;;;;;5040521;28;20308;-62
2023/10/13 06:43:58;;;;;;;8.13;3.80;;;20.00;99.90;;;;;;5042729;28;20201;-63
2023/10/13 06:46:28;;;;;;;10.15;4.07;;;20.20;99.90;;;;;;5039652;28;20702;-62
2023/10/13 06:48:59;;;;;;;7.00;3.85;;;20.50;99.90;;;;;;5039060;28;20241;-65
2023/10/13 06:51:30;;;;;;;9.02;3.70;;;21.00;99.90;;;;;;5042537;28;20304;-62
2023/10/13 06:53:57;;;;;;;6.20;3.80;;;21.10;99.90;;;;;;5042983;28;20202;-62
2023/10/13 06:56:29;;;;;;;7.32;3.92;;;21.10;99.90;;;;;;5039580;28;20202;-62
2023/10/13 06:58:59;;;;;;;5.35;3.50;;;21.00;99.90;;;;;;5038672;28;20222;-64
2023/10/13 07:01:27;;;;;;;8.88;4.75;;;21.00;99.90;;;;;;5042046;28;20201;-64
2023/10/13 07:03:53;;;;;;;9.15;3.97;;;21.00;99.90;;;;;;5042315;28;20206;-63
2023/10/13 07:06:22;;;;;;;9.35;3.70;;;21.10;99.90;;;;;;5039942;28;20647;-64
2023/10/13 07:08:52;;;;;;;13.07;4.07;;;21.00;99.90;;;;;;5039028;28;20262;-64
2023/10/13 07:11:22;;;;;;;8.13;3.60;;;20.80;99.90;;;;;;5038863;28;20217;-63
2023/10/13 07:13:52;;;;;;;9.88;4.40;;;20.70;99.90;;;;;;5039029;28;20202;-64
2023/10/13 07:16:19;;;;;;;9.20;4.07;;;20.50;99.90;;;;;;5041183;28;20281;-64
2023/10/13 07:18:52;;;;;;;13.15;4.05;;;20.30;99.90;;;;;;5042157;28;20313;-65
2023/10/13 07:21:24;;;;;;;9.30;4.70;;;20.30;99.90;;;;;;5039968;28;20224;-63
2023/10/13 07:24:08;;;;;;;13.18;4.13;;;20.40;99.90;;;;;;5039072;28;20206;-63
2023/10/13 07:26:35;;;;;;;7.68;3.47;;;20.40;99.90;;;;;;5038972;28;20550;-64
2023/10/13 07:29:02;;;;;;;5.63;3.35;;;20.40;99.90;;;;;;5038646;28;20605;-64
2023/10/13 07:31:29;;;;;;;5.57;3.42;;;20.40;99.90;;;;;;5039031;28;20689;-63
2023/10/13 07:34:04;;;;;;;6.03;3.20;;;20.30;99.90;;;;;;5038844;28;20206;-65
2023/10/13 07:36:34;;;;;;;10.02;3.53;;;20.30;99.90;;;;;;5038511;28;20212;-64
2023/10/13 07:39:20;;;;;;;6.53;3.65;;;20.30;99.90;;;;;;5038508;28;20218;-63
2023/10/13 07:41:51;;;;;;;7.72;3.55;;;20.30;99.90;;;;;;5038897;28;20474;-64
2023/10/13 07:44:19;;;;;;;11.45;3.70;;;20.40;99.90;;;;;;5040821;28;20234;-65
2023/10/13 07:46:57;;;;;;;9.82;3.63;;;20.50;99.90;;;;;;5041879;28;20202;-63
2023/10/13 07:49:24;;;;;;;6.72;3.50;;;20.50;99.90;;;;;;5043342;28;20247;-64
2023/10/13 07:51:57;;;;;;;5.20;3.28;;;20.70;99.90;;;;;;5042772;28;20218;-64
2023/10/13 07:54:25;;;;;;;30.13;14.35;;;20.80;99.90;;;;;;5045418;28;20207;-63
2023/10/13 07:56:54;;;;;;;44.65;24.05;;;20.80;99.90;;;;;;5046213;28;20725;-64
2023/10/13 07:59:22;;;;;;;16.83;8.70;;;20.90;99.90;;;;;;5043524;28;20229;-64
2023/10/13 08:02:11;;;;;;;11.98;3.97;;;21.00;99.90;;;;;;5042861;28;20205;-64
2023/10/13 08:04:36;;;;;;;43.10;25.67;;;21.10;99.90;;;;;;5042420;28;20198;-64
2023/10/13 08:07:12;;;;;;;14.13;7.13;;;21.20;99.90;;;;;;5042605;28;20222;-64
2023/10/13 08:09:41;;;;;;;12.30;6.07;;;21.20;99.90;;;;;;5042141;28;20226;-64
2023/10/13 08:12:11;;;;;;;18.02;10.48;;;21.30;99.90;;;;;;5042434;28;20253;-64
2023/10/13 08:14:40;;;;;;;22.63;13.23;;;21.40;99.90;;;;;;5045848;28;20238;-64
2023/10/13 08:17:10;;;;;;;17.70;9.95;;;21.50;99.90;;;;;;5045131;28;20292;-64
2023/10/13 08:19:44;;;;;;;15.27;5.55;;;21.60;99.90;;;;;;5042023;28;20280;-64
2023/10/13 08:22:24;;;;;;;9.65;3.85;;;21.60;99.90;;;;;;5042921;28;20233;-65
2023/10/13 08:24:58;;;;;;;24.48;13.48;;;21.70;99.90;;;;;;5045819;28;20659;-65
2023/10/13 08:30:29;;;;;;;8.40;3.03;;;22.00;99.90;;;;;;5033278;28;20268;-62
2023/10/13 08:32:58;;;;;;;9.65;3.35;;;22.00;99.90;;;;;;5041759;28;20289;-66
2023/10/13 08:35:34;;;;;;;7.63;3.45;;;22.20;99.90;;;;;;5044468;28;20214;-64
2023/10/13 08:38:13;;;;;;;6.55;3.17;;;22.20;99.90;;;;;;5044774;28;20197;-63
2023/10/13 08:43:45;;;;;;;6.82;3.00;;;22.40;99.90;;;;;;5041424;28;20588;-63
2023/10/13 08:46:26;;;;;;;11.10;3.53;;;22.50;99.90;;;;;;5042537;28;20713;-65
2023/10/13 08:49:17;;;;;;;6.72;3.30;;;22.60;99.90;;;;;;5044488;28;20243;-63
2023/10/13 08:51:45;;;;;;;7.88;3.15;;;22.70;99.90;;;;;;5041476;28;20222;-65
2023/10/13 08:54:34;;;;;;;12.75;3.05;;;22.80;99.90;;;;;;5042585;28;20206;-65
2023/10/13 08:57:32;;;;;;;10.32;3.22;;;22.80;99.90;;;;;;5044762;28;20565;-63
2023/10/13 09:00:26;;;;;;;10.98;3.28;;;23.00;99.40;;;;;;5039449;28;20765;-63
2023/10/13 09:06:00;;;;;;;7.80;3.22;;;23.30;96.00;;;;;;5108591;27;20669;-66
2023/10/13 09:08:34;;;;;;;7.75;2.63;;;23.40;95.30;;;;;;5105910;28;20204;-64
2023/10/13 09:11:11;;;;;;;11.02;3.45;;;23.70;94.60;;;;;;5088216;28;20209;-64
2023/10/13 09:13:43;;;;;;;7.00;2.92;;;23.70;94.00;;;;;;5080342;28;20199;-64
2023/10/13 09:16:17;;;;;;;8.15;2.85;;;23.90;93.60;;;;;;5088130;28;20670;-64
2023/10/13 09:18:46;;;;;;;10.90;3.22;;;24.00;92.80;;;;;;5080127;23;20686;-62
2023/10/13 09:21:43;;;;;;;10.32;2.70;;;24.30;92.20;;;;;;5047661;28;20213;-63
2023/10/13 09:24:27;;;;;;;6.63;2.55;;;24.40;91.90;;;;;;5047869;28;20233;-64
2023/10/13 09:26:55;;;;;;;6.70;2.70;;;24.70;90.90;;;;;;5047228;28;20232;-61
2023/10/13 09:29:24;;;;;;;12.68;3.13;;;25.00;90.10;;;;;;5054914;28;20217;-63
2023/10/13 09:32:00;;;;;;;9.18;3.28;;;25.30;88.10;;;;;;5055125;28;20231;-60
2023/10/13 09:34:29;;;;;;;9.57;3.22;;;25.70;87.80;;;;;;5058522;28;20556;-58
2023/10/13 09:36:57;;;;;;;7.95;3.05;;;25.80;87.10;;;;;;5059259;28;20205;-58
2023/10/13 09:39:41;;;;;;;11.60;3.03;;;26.10;86.10;;;;;;5047661;28;20233;-57
2023/10/13 09:42:10;;;;;;;12.05;2.97;;;26.20;85.00;;;;;;5047284;28;20210;-60
2023/10/13 09:44:40;;;;;;;8.98;4.00;;;26.10;84.10;;;;;;5047225;28;20226;-59
2023/10/13 09:47:17;;;;;;;8.43;3.08;;;26.10;85.00;;;;;;5047386;28;20305;-59
2023/10/13 09:49:48;;;;;;;8.13;2.80;;;26.00;84.80;;;;;;5057820;28;20278;-59
2023/10/13 09:52:20;;;;;;;7.47;2.78;;;26.00;84.30;;;;;;5055289;28;20576;-60
2023/10/13 09:54:59;;;;;;;6.43;2.80;;;26.00;83.90;;;;;;5047227;28;20198;-60
2023/10/13 09:57:34;;;;;;;6.15;3.15;;;25.90;84.20;;;;;;5054910;28;20585;-60
2023/10/13 10:00:15;;;;;;;10.80;5.45;;;26.00;84.00;;;;;;5046775;28;20213;-61
2023/10/13 10:02:44;;;;;;;10.45;5.88;;;25.90;84.40;;;;;;5046678;28;20205;-59
2023/10/13 10:05:21;;;;;;;6.18;2.60;;;25.90;88.40;;;;;;5054862;28;20217;-59
2023/10/13 10:07:56;;;;;;;6.22;2.72;;;25.80;84.30;;;;;;5046720;28;20225;-59
2023/10/13 10:10:29;;;;;;;9.18;2.80;;;25.90;84.30;;;;;;5046693;28;20221;-58
2023/10/13 10:13:02;;;;;;;5.68;2.55;;;25.90;84.50;;;;;;5046394;28;20260;-59
2023/10/13 10:15:33;;;;;;;8.20;3.00;;;26.00;84.30;;;;;;5041626;28;20254;-58
2023/10/13 10:18:01;;;;;;;10.15;3.00;;;26.20;83.90;;;;;;5041228;28;20226;-57
2023/10/13 10:20:39;;;;;;;6.00;2.42;;;26.30;83.60;;;;;;5033492;28;20619;-58
2023/10/13 10:23:09;;;;;;;7.70;2.75;;;26.50;82.90;;;;;;5033453;28;20280;-59
2023/10/13 10:25:44;;;;;;;6.68;2.85;;;26.60;82.50;;;;;;5033426;28;20257;-59
2023/10/13 10:28:15;;;;;;;5.75;2.90;;;26.70;83.30;;;;;;5040879;28;20234;-59
2023/10/13 10:30:43;;;;;;;9.50;3.15;;;26.80;82.20;;;;;;5033190;28;20261;-59
2023/10/13 10:33:13;;;;;;;10.50;3.70;;;26.90;81.80;;;;;;5032848;28;20203;-57
2023/10/13 10:35:42;;;;;;;5.45;2.70;;;26.90;81.30;;;;;;5032564;28;20241;-58
2023/10/13 10:38:15;;;;;;;10.00;2.80;;;26.90;80.90;;;;;;5032618;28;20288;-57
2023/10/13 10:40:57;;;;;;;9.40;2.85;;;27.00;80.90;;;;;;5033014;28;20210;-58
2023/10/13 10:43:41;;;;;;;7.47;2.90;;;27.00;79.30;;;;;;5041315;28;20206;-59
2023/10/13 10:46:10;;;;;;;7.55;2.95;;;27.00;79.00;;;;;;5041209;28;20652;-58
2023/10/13 10:48:42;;;;;;;7.50;2.72;;;26.90;77.70;;;;;;5033579;28;20226;-58
2023/10/13 10:51:22;;;;;;;4.05;2.35;;;26.90;78.60;;;;;;5033684;28;20250;-58
2023/10/13 10:53:51;;;;;;;7.88;2.92;;;26.90;77.90;;;;;;5041312;28;20228;-59
2023/10/13 10:56:24;;;;;;;10.48;2.75;;;26.70;78.70;;;;;;5033148;28;20214;-59
2023/10/13 10:58:55;;;;;;;6.70;3.28;;;26.80;78.50;;;;;;5032561;28;20238;-59
2023/10/13 11:01:22;;;;;;;13.32;3.88;;;26.90;77.70;;;;;;5032934;28;20245;-59
2023/10/13 11:03:58;;;;;;;8.77;3.30;;;26.90;77.90;;;;;;5032836;28;20301;-59
2023/10/13 11:06:26;;;;;;;6.70;2.58;;;27.00;78.10;;;;;;5042676;28;20251;-59
2023/10/13 11:09:12;;;;;;;9.90;2.88;;;27.10;77.00;;;;;;5044185;28;20221;-59
2023/10/13 11:11:46;;;;;;;10.57;3.10;;;27.10;77.30;;;;;;5039903;28;20301;-58
2023/10/13 11:14:22;;;;;;;5.25;2.70;;;27.20;77.50;;;;;;5032656;28;20249;-59
2023/10/13 11:16:53;;;;;;;3.75;2.60;;;27.20;77.60;;;;;;5032011;28;20241;-59
2023/10/13 11:19:25;;;;;;;10.40;3.70;;;27.30;77.50;;;;;;5032103;28;20251;-59
2023/10/13 11:21:55;;;;;;;7.88;3.50;;;27.40;77.40;;;;;;5041058;28;20291;-61
2023/10/13 11:24:23;;;;;;;10.98;3.20;;;27.40;76.50;;;;;;5032702;28;20261;-60
2023/10/13 11:26:52;;;;;;;8.55;3.00;;;27.40;75.20;;;;;;5031957;28;20213;-58
2023/10/13 11:29:22;;;;;;;7.70;2.83;;;27.40;73.60;;;;;;5039640;28;20229;-58
2023/10/13 11:31:58;;;;;;;10.43;3.28;;;27.40;72.60;;;;;;5032413;28;20206;-58
2023/10/13 11:34:25;;;;;;;11.48;3.03;;;27.50;72.70;;;;;;5031898;28;20209;-59
2023/10/13 11:36:52;;;;;;;7.82;2.92;;;27.80;72.20;;;;;;5032290;28;20213;-59
2023/10/13 11:39:22;;;;;;;5.75;2.40;;;28.00;71.60;;;;;;5039823;28;20273;-59
2023/10/13 11:41:53;;;;;;;7.82;3.08;;;28.20;70.90;;;;;;5036602;28;20205;-59
2023/10/13 11:44:43;;;;;;;9.25;2.80;;;28.30;69.80;;;;;;5033571;28;20226;-58
2023/10/13 11:47:32;;;;;;;5.35;2.63;;;28.40;69.90;;;;;;5031965;28;20724;-58
2023/10/13 11:49:59;;;;;;;6.75;2.47;;;28.50;68.90;;;;;;5031440;28;20198;-59
2023/10/13 11:52:29;;;;;;;8.80;2.33;;;28.50;68.60;;;;;;5031162;28;20292;-59
2023/10/13 11:54:56;;;;;;;6.68;3.53;;;28.60;68.30;;;;;;5038282;28;20224;-60
2023/10/13 11:57:24;;;;;;;8.13;3.08;;;28.60;67.80;;;;;;5033091;28;20687;-60
2023/10/13 12:00:16;;;;;;;10.68;2.30;;;28.50;67.30;;;;;;5031763;28;20230;-59
2023/10/13 12:05:37;;;;;;;6.15;2.47;;;28.70;66.40;;;;;;5030507;28;20328;-58
2023/10/13 12:08:07;;;;;;;9.85;2.83;;;28.80;66.40;;;;;;5031181;28;20781;-60
2023/10/13 12:10:38;;;;;;;5.97;2.78;;;28.90;65.60;;;;;;5034108;28;20205;-59
2023/10/13 12:13:08;;;;;;;6.20;2.60;;;29.00;65.70;;;;;;5035506;28;20211;-59
2023/10/13 12:15:48;;;;;;;8.25;2.83;;;29.10;64.70;;;;;;5039015;28;20209;-58
2023/10/13 12:18:15;;;;;;;9.23;2.78;;;29.20;63.80;;;;;;5030667;28;20233;-59
2023/10/13 12:20:45;;;;;;;9.07;2.90;;;29.20;63.40;;;;;;5031158;28;20241;-59
2023/10/13 12:23:17;;;;;;;11.50;2.90;;;29.20;63.70;;;;;;5031111;28;20233;-60
2023/10/13 12:25:59;;;;;;;6.75;3.17;;;29.20;62.40;;;;;;5030934;28;20635;-59
2023/10/13 12:28:28;;;;;;;8.85;2.72;;;29.20;62.70;;;;;;5030266;28;20230;-59
2023/10/13 12:31:06;;;;;;;9.63;2.78;;;29.10;62.70;;;;;;5031048;28;20214;-58
2023/10/13 12:33:37;;;;;;;7.70;3.00;;;29.10;62.70;;;;;;5030854;28;20218;-58
2023/10/13 12:36:09;;;;;;;6.78;2.30;;;29.10;62.60;;;;;;5030623;28;20723;-59
2023/10/13 12:48:55;;;;;;;9.50;2.85;;;29.10;61.90;;;;;;5041087;28;20284;-59
2023/10/13 12:49:59;;;;;;;6.18;2.88;;;29.20;62.10;;;;;;5030720;28;20737;-59
2023/10/13 12:52:26;;;;;;;13.05;3.80;;;29.30;62.30;;;;;;5038949;28;20241;-58
2023/10/13 12:55:06;;;;;;;10.52;2.60;;;29.30;62.00;;;;;;5030453;28;20207;-59
2023/10/13 12:57:33;;;;;;;8.60;3.03;;;29.30;61.20;;;;;;5030392;28;20210;-59
2023/10/13 13:00:16;;;;;;;11.13;2.95;;;29.40;60.90;;;;;;5030403;28;20256;-59
2023/10/13 13:02:43;;;;;;;10.65;2.75;;;29.30;60.80;;;;;;5030467;28;20691;-59
2023/10/13 13:05:12;;;;;;;8.68;2.45;;;29.40;61.00;;;;;;5030175;28;20226;-57
2023/10/13 13:07:46;;;;;;;5.75;2.70;;;29.40;61.00;;;;;;5030247;28;20718;-59
2023/10/13 13:10:14;;;;;;;6.60;2.67;;;29.50;61.00;;;;;;5031022;28;20500;-59
2023/10/13 13:12:40;;;;;;;5.75;2.53;;;29.50;60.00;;;;;;5038377;28;20216;-59
2023/10/13 13:15:09;;;;;;;10.48;3.15;;;29.60;60.00;;;;;;5037993;28;20208;-59
2023/10/13 13:17:38;;;;;;;9.70;3.15;;;29.60;60.00;;;;;;5030273;28;20216;-59
2023/10/13 13:20:11;;;;;;;18.75;3.42;;;29.60;60.00;;;;;;5038666;28;20664;-59
2023/10/13 13:22:38;;;;;;;6.60;2.53;;;29.50;60.00;;;;;;5030140;28;20289;-61
2023/10/13 13:25:08;;;;;;;5.15;2.58;;;29.60;60.10;;;;;;5030252;28;20226;-59
2023/10/13 13:27:36;;;;;;;12.20;2.60;;;29.40;60.40;;;;;;5030556;28;20268;-58
2023/10/13 13:30:11;;;;;;;6.13;2.67;;;29.30;60.70;;;;;;5029836;28;20564;-63
2023/10/13 13:32:40;;;;;;;8.07;3.05;;;29.10;60.40;;;;;;5030723;28;20245;-59
2023/10/13 13:35:08;;;;;;;6.90;2.70;;;28.90;61.20;;;;;;5030708;28;20681;-61
2023/10/13 13:37:37;;;;;;;10.13;3.00;;;28.70;61.10;;;;;;5038496;28;20297;-62
2023/10/13 13:40:14;;;;;;;8.85;2.70;;;28.60;61.50;;;;;;5030226;28;20210;-68
2023/10/13 13:42:42;;;;;;;8.85;2.88;;;28.70;61.30;;;;;;5030180;28;20210;-62
2023/10/13 13:45:21;;;;;;;10.60;3.00;;;28.80;61.10;;;;;;5030526;28;20321;-60
2023/10/13 13:47:53;;;;;;;11.63;2.75;;;28.90;60.50;;;;;;5030210;28;20593;-62
2023/10/13 13:50:24;;;;;;;14.55;3.53;;;29.10;60.50;;;;;;5047569;28;20221;-62
2023/10/13 13:52:52;;;;;;;14.88;3.20;;;29.20;60.70;;;;;;5034934;28;20210;-62
2023/10/13 13:55:20;;;;;;;8.38;2.97;;;29.30;60.40;;;;;;5034347;28;20216;-62
2023/10/13 13:57:46;;;;;;;10.27;2.75;;;29.30;59.80;;;;;;5037476;28;20260;-63
2023/10/13 14:00:17;;;;;;;8.80;2.97;;;29.40;59.90;;;;;;5054704;28;20201;-57
2023/10/13 14:02:47;;;;;;;6.60;3.08;;;29.40;60.30;;;;;;5042042;28;20248;-57
2023/10/13 14:05:16;;;;;;;7.13;3.08;;;29.40;59.90;;;;;;5042017;28;20598;-61
2023/10/13 14:07:48;;;;;;;4.53;2.50;;;29.50;59.50;;;;;;5042277;28;20288;-58
2023/10/13 14:10:31;;;;;;;7.93;2.78;;;29.50;58.50;;;;;;5042378;28;20202;-62
2023/10/13 14:13:06;;;;;;;7.35;2.58;;;29.50;58.00;;;;;;5042500;28;20202;-59
2023/10/13 14:15:39;;;;;;;6.68;2.63;;;29.40;57.90;;;;;;5044299;28;20202;-58
2023/10/13 14:18:06;;;;;;;7.95;3.10;;;29.40;57.60;;;;;;5045136;28;20291;-59
2023/10/13 14:20:39;;;;;;;8.15;2.55;;;29.40;57.10;;;;;;5043263;28;20205;-58
2023/10/13 14:23:07;;;;;;;6.13;3.00;;;29.50;57.00;;;;;;5041977;28;20287;-58
2023/10/13 14:25:37;;;;;;;6.40;2.90;;;29.40;56.90;;;;;;5044566;28;20276;-59
2023/10/13 14:28:05;;;;;;;6.38;2.45;;;29.40;56.60;;;;;;5045041;28;20649;-57
2023/10/13 14:30:31;;;;;;;5.22;2.63;;;29.30;56.50;;;;;;5043016;28;20248;-59
2023/10/13 14:32:59;;;;;;;6.00;2.40;;;29.30;56.50;;;;;;5041755;28;20249;-58
2023/10/13 14:35:26;;;;;;;8.82;2.55;;;29.30;56.40;;;;;;5043116;28;20221;-58
2023/10/13 14:37:54;;;;;;;6.05;2.00;;;29.30;56.40;;;;;;5045318;28;20777;-57
2023/10/13 14:40:21;;;;;;;5.93;2.50;;;29.30;55.90;;;;;;5044578;28;20212;-58
2023/10/13 14:42:48;;;;;;;8.73;2.90;;;29.30;55.70;;;;;;5041959;28;20206;-58
2023/10/13 14:45:16;;;;;;;7.00;2.40;;;29.20;55.70;;;;;;5041797;28;20229;-58
2023/10/13 14:47:43;;;;;;;7.38;2.75;;;29.20;55.50;;;;;;5041426;28;20277;-58
2023/10/13 14:50:17;;;;;;;6.53;3.55;;;29.20;54.90;;;;;;5041598;28;20206;-59
2023/10/13 14:52:44;;;;;;;4.43;2.25;;;29.10;54.60;;;;;;5041455;28;20281;-58
2023/10/13 14:55:18;;;;;;;6.50;2.40;;;29.20;54.80;;;;;;5041448;28;20199;-59
2023/10/13 14:57:47;;;;;;;7.85;3.22;;;29.10;54.50;;;;;;5041168;28;20225;-63
2023/10/13 15:00:14;;;;;;;5.10;2.45;;;29.10;54.50;;;;;;5041366;28;20198;-61
2023/10/13 15:02:42;;;;;;;6.10;2.28;;;29.00;54.50;;;;;;5044520;28;20214;-57